Chachapoyas, Peru
Current Conditions -  °F | °C
As of 6:00 PM on Sunday 19 Oct 2014 (Local Time) from SPJR Reporting Station
Scattered Clouds Scattered Clouds  
Wind Chill: 18°   Ceiling: Unl
Heat Index: 18°   Visibility: 6mi
Dew Point:   Wind: 3mph
Humidity: 56%   Direction: 100°E
Pressure: 30.3"   Gusts: NA
Location:  6.23°S, 77.87°W
Report Text: SPJR 192300Z 10003KT 9999 SCT026 18/09 Q1026 RMK PP000
Loading
Personal Weather Stations






























Interactive Weather Map
Tropical Storm Tracking
New forecast layout! Learn more

10-Day Weather Forecast

Advertisements
Track Severe Weather on mobile